createdAt,value
2022-08-05T00:01:49.118Z,19.40
2022-08-05T00:04:18.555Z,19.37
2022-08-05T00:06:47.092Z,19.35
2022-08-05T00:09:20.417Z,19.34
2022-08-05T00:11:56.048Z,19.31
2022-08-05T00:14:31.362Z,19.27
2022-08-05T00:17:01.848Z,19.24
2022-08-05T00:19:33.206Z,19.22
2022-08-05T00:22:11.509Z,19.19
2022-08-05T00:24:42.463Z,19.17
2022-08-05T00:27:16.659Z,19.14
2022-08-05T00:29:45.352Z,19.13
2022-08-05T00:32:15.509Z,19.10
2022-08-05T00:35:03.489Z,19.07
2022-08-05T00:37:50.926Z,19.06
2022-08-05T00:40:27.207Z,19.04
2022-08-05T00:43:02.877Z,19.02
2022-08-05T00:45:42.806Z,19.00
2022-08-05T00:48:31.529Z,18.99
2022-08-05T00:50:59.892Z,18.99
2022-08-05T00:54:01.349Z,18.99
2022-08-05T00:56:25.248Z,19.00
2022-08-05T00:58:53.621Z,18.98
2022-08-05T01:01:28.532Z,18.97
2022-08-05T01:04:14.229Z,18.97
2022-08-05T01:06:48.639Z,18.97
2022-08-05T01:09:20.005Z,18.96
2022-08-05T01:11:50.717Z,18.96
2022-08-05T01:14:37.596Z,18.93
2022-08-05T01:17:29.858Z,18.90
2022-08-05T01:20:04.121Z,18.84
2022-08-05T01:23:22.794Z,18.81
2022-08-05T01:26:16.966Z,18.80
2022-08-05T01:29:04.981Z,18.80
2022-08-05T01:31:44.850Z,18.78
2022-08-05T01:34:21.274Z,18.75
2022-08-05T01:37:03.051Z,18.73
2022-08-05T01:39:36.898Z,18.70
2022-08-05T01:42:19.918Z,18.67
2022-08-05T01:44:54.339Z,18.67
2022-08-05T01:47:30.552Z,18.64
2022-08-05T01:50:30.512Z,18.61
2022-08-05T01:53:10.419Z,18.61
2022-08-05T01:55:44.263Z,18.61
2022-08-05T01:58:15.893Z,18.59
2022-08-05T02:00:52.369Z,18.58
2022-08-05T02:03:31.734Z,18.56
2022-08-05T02:06:03.586Z,18.56
2022-08-05T02:08:58.368Z,18.56
2022-08-05T02:11:53.158Z,18.54
2022-08-05T02:14:40.201Z,18.53
2022-08-05T02:18:31.171Z,18.51
2022-08-05T02:20:22.553Z,18.48
2022-08-05T02:22:58.641Z,18.47
2022-08-05T02:25:49.045Z,18.46
2022-08-05T02:28:28.889Z,18.45
2022-08-05T02:31:14.447Z,18.44
2022-08-05T02:33:57.261Z,18.44
2022-08-05T02:36:31.367Z,18.44
2022-08-05T02:39:02.025Z,18.43
2022-08-05T02:41:43.200Z,18.41
2022-08-05T02:44:24.538Z,18.38
2022-08-05T02:46:59.790Z,18.37
2022-08-05T02:49:36.832Z,18.34
2022-08-05T02:52:30.076Z,18.33
2022-08-05T02:55:02.047Z,18.31
2022-08-05T02:58:11.880Z,18.31
2022-08-05T03:00:25.431Z,18.32
2022-08-05T03:02:56.731Z,18.32
2022-08-05T03:06:55.958Z,18.31
2022-08-05T03:08:16.417Z,18.32
2022-08-05T03:11:50.067Z,18.33
2022-08-05T03:13:51.798Z,18.34
2022-08-05T03:16:22.422Z,18.24
2022-08-05T03:18:51.507Z,18.36
2022-08-05T03:21:20.299Z,18.37
2022-08-05T03:23:50.072Z,18.37
2022-08-05T03:26:31.322Z,18.36
2022-08-05T03:29:01.262Z,18.39
2022-08-05T03:31:56.637Z,18.41
2022-08-05T03:34:19.326Z,18.44
2022-08-05T03:36:52.665Z,18.47
2022-08-05T03:39:27.086Z,18.46
2022-08-05T03:41:57.279Z,18.44
2022-08-05T03:44:26.110Z,18.45
2022-08-05T03:46:57.382Z,18.47
2022-08-05T03:49:31.228Z,18.50
2022-08-05T03:52:50.623Z,18.55
2022-08-05T03:56:00.987Z,18.62
2022-08-05T03:58:08.864Z,18.73
2022-08-05T04:00:42.080Z,18.83
2022-08-05T04:03:28.448Z,18.87
2022-08-05T04:05:59.275Z,18.89
2022-08-05T04:08:36.428Z,18.90
2022-08-05T04:11:08.618Z,18.92
2022-08-05T04:13:50.564Z,18.96
2022-08-05T04:16:24.847Z,19.06
2022-08-05T04:18:57.748Z,19.16
2022-08-05T04:22:08.641Z,19.19
2022-08-05T04:24:19.319Z,19.23
2022-08-05T04:26:50.987Z,19.27
2022-08-05T04:29:19.675Z,19.32
2022-08-05T04:31:48.376Z,19.35
2022-08-05T04:34:32.308Z,19.40
2022-08-05T04:37:03.162Z,19.47
2022-08-05T04:39:32.427Z,19.51
2022-08-05T04:42:04.072Z,19.59
2022-08-05T04:44:32.376Z,19.65
2022-08-05T04:47:09.777Z,19.70
2022-08-05T04:50:02.801Z,19.76
2022-08-05T04:52:36.530Z,19.85
2022-08-05T04:55:09.570Z,19.93
2022-08-05T04:57:47.500Z,20.00
2022-08-05T05:00:16.893Z,20.07
2022-08-05T05:02:45.122Z,20.14
2022-08-05T05:05:26.117Z,20.21
2022-08-05T05:08:14.440Z,20.27
2022-08-05T05:10:56.729Z,20.34
2022-08-05T05:13:24.939Z,20.41
2022-08-05T05:15:56.194Z,20.49
2022-08-05T05:18:31.054Z,20.58
2022-08-05T05:21:03.705Z,20.66
2022-08-05T05:23:39.184Z,20.74
2022-08-05T05:26:28.056Z,20.83
2022-08-05T05:28:57.112Z,20.92
2022-08-05T05:31:25.276Z,20.96
2022-08-05T05:34:01.926Z,21.00
2022-08-05T05:36:32.087Z,21.08
2022-08-05T05:39:00.466Z,21.18
2022-08-05T05:41:40.605Z,21.31
2022-08-05T05:44:35.559Z,21.46
2022-08-05T05:47:04.445Z,21.67
2022-08-05T05:49:41.586Z,21.84
2022-08-05T05:52:13.002Z,21.94
2022-08-05T05:54:54.757Z,22.02
2022-08-05T05:57:22.865Z,22.10
2022-08-05T05:59:51.104Z,22.24
2022-08-05T06:02:32.738Z,22.38
2022-08-05T06:05:16.433Z,22.48
2022-08-05T06:07:57.550Z,22.53
2022-08-05T06:10:34.429Z,22.53
2022-08-05T06:13:05.530Z,22.60
2022-08-05T06:16:30.386Z,22.67
2022-08-05T06:18:31.411Z,22.74
2022-08-05T06:21:00.776Z,22.77
2022-08-05T06:23:43.487Z,22.82
2022-08-05T06:26:21.669Z,22.91
2022-08-05T06:28:53.521Z,22.99
2022-08-05T06:31:22.504Z,23.11
2022-08-05T06:34:06.780Z,23.26
2022-08-05T06:36:40.948Z,23.43
2022-08-05T06:39:27.674Z,23.56
2022-08-05T06:41:58.725Z,23.75
2022-08-05T06:44:27.878Z,23.98
2022-08-05T06:46:57.048Z,24.18
2022-08-05T06:50:01.917Z,24.39
2022-08-05T06:52:37.937Z,24.53
2022-08-05T06:55:02.808Z,24.70
2022-08-05T06:58:03.811Z,24.92
2022-08-05T07:00:22.147Z,25.10
2022-08-05T07:02:54.233Z,25.23
2022-08-05T07:05:31.922Z,25.30
2022-08-05T07:08:10.880Z,25.35
2022-08-05T07:10:52.420Z,25.33
2022-08-05T07:13:57.549Z,25.35
2022-08-05T07:18:00.542Z,25.42
2022-08-05T07:20:10.935Z,25.49
2022-08-05T07:22:27.848Z,25.54
2022-08-05T07:25:23.870Z,25.57
2022-08-05T07:27:57.227Z,25.53
2022-08-05T07:30:33.801Z,25.57
2022-08-05T07:33:05.417Z,25.63
2022-08-05T07:36:04.593Z,25.69
2022-08-05T07:38:33.334Z,25.83
2022-08-05T07:42:07.063Z,26.04
2022-08-05T07:43:59.921Z,26.26
2022-08-05T07:46:30.873Z,26.39
2022-08-05T07:49:05.430Z,26.41
2022-08-05T07:51:40.701Z,26.38
2022-08-05T07:54:18.587Z,26.48
2022-08-05T07:57:14.859Z,26.65
2022-08-05T07:59:40.376Z,26.85
2022-08-05T08:02:16.704Z,27.04
2022-08-05T08:04:48.216Z,27.00
2022-08-05T08:07:22.697Z,26.93
2022-08-05T08:09:53.135Z,26.95
2022-08-05T08:12:34.993Z,26.92
2022-08-05T08:15:15.605Z,26.88
2022-08-05T08:17:49.734Z,27.03
2022-08-05T08:21:00.070Z,27.33
2022-08-05T08:24:02.264Z,27.53
2022-08-05T08:26:02.762Z,27.53
2022-08-05T08:28:36.546Z,27.66
2022-08-05T08:31:07.261Z,28.09
2022-08-05T08:33:38.302Z,28.24
2022-08-05T08:38:57.037Z,27.92
2022-08-05T08:41:51.212Z,28.24
2022-08-05T08:45:23.434Z,28.74
2022-08-05T08:47:47.307Z,28.94
2022-08-05T08:50:22.689Z,29.00
2022-08-05T08:52:53.254Z,29.34
2022-08-05T08:56:01.791Z,29.64
2022-08-05T08:58:12.970Z,29.82
2022-08-05T09:00:44.888Z,30.22
2022-08-05T09:03:16.289Z,30.58
2022-08-05T09:06:09.201Z,30.84
2022-08-05T09:08:40.028Z,31.23
2022-08-05T09:11:13.678Z,31.59
2022-08-05T09:14:09.181Z,31.88
2022-08-05T09:16:31.818Z,32.14
2022-08-05T09:19:00.143Z,32.13
2022-08-05T09:22:22.719Z,32.02
2022-08-05T09:24:18.379Z,32.34
2022-08-05T09:26:48.790Z,32.59
2022-08-05T09:29:20.252Z,32.31
2022-08-05T09:32:41.033Z,32.46
2022-08-05T09:34:58.655Z,32.59
2022-08-05T09:38:16.987Z,32.74
2022-08-05T09:40:34.914Z,33.10
2022-08-05T09:43:08.552Z,33.09
2022-08-05T09:46:06.464Z,32.78
2022-08-05T09:49:07.368Z,32.31
2022-08-05T09:51:36.604Z,32.41
2022-08-05T09:54:09.436Z,32.78
2022-08-05T09:56:39.353Z,33.11
2022-08-05T09:59:17.205Z,33.36
2022-08-05T10:01:47.653Z,32.95
2022-08-05T10:04:17.439Z,32.37
2022-08-05T10:06:59.469Z,32.50
2022-08-05T10:09:29.416Z,32.52
2022-08-05T10:12:30.392Z,32.83
2022-08-05T10:15:26.706Z,33.32
2022-08-05T10:18:16.892Z,33.15
2022-08-05T10:20:48.318Z,33.12
2022-08-05T10:23:34.126Z,32.95
2022-08-05T10:26:13.995Z,32.21
2022-08-05T10:28:46.337Z,32.43
2022-08-05T10:32:47.463Z,32.76
2022-08-05T10:34:07.122Z,32.34
2022-08-05T10:36:37.996Z,32.73
2022-08-05T10:39:24.425Z,33.26
2022-08-05T10:42:34.013Z,33.64
2022-08-05T10:45:21.291Z,34.08
2022-08-05T10:48:30.094Z,34.41
2022-08-05T10:51:21.494Z,34.87
2022-08-05T10:53:51.028Z,34.87
2022-08-05T10:56:27.685Z,34.82
2022-08-05T10:59:12.774Z,34.90
2022-08-05T11:01:54.000Z,35.32
2022-08-05T11:04:26.318Z,35.65
2022-08-05T11:07:06.944Z,35.45
2022-08-05T11:10:09.464Z,34.97
2022-08-05T11:12:38.613Z,34.97
2022-08-05T11:15:20.095Z,34.98
2022-08-05T11:17:59.385Z,34.93
2022-08-05T11:20:39.195Z,35.17
2022-08-05T11:23:33.756Z,35.51
2022-08-05T11:26:31.966Z,35.86
2022-08-05T11:29:12.221Z,36.10
2022-08-05T11:31:56.610Z,35.98
2022-08-05T11:34:50.858Z,36.00
2022-08-05T11:38:28.625Z,36.15
2022-08-05T11:41:03.430Z,36.26
2022-08-05T11:44:07.879Z,34.91
2022-08-05T11:47:09.197Z,33.78
2022-08-05T11:49:29.236Z,33.87
2022-08-05T11:52:11.528Z,34.65
2022-08-05T11:54:41.528Z,34.99
2022-08-05T11:57:24.817Z,35.18
2022-08-05T11:59:55.206Z,35.66
2022-08-05T12:02:30.175Z,35.93
2022-08-05T12:05:07.203Z,35.89
2022-08-05T12:08:09.012Z,35.03
2022-08-05T12:10:43.442Z,33.56
2022-08-05T12:13:28.141Z,33.76
2022-08-05T12:16:14.484Z,34.48
2022-08-05T12:18:49.501Z,34.39
2022-08-05T12:21:39.184Z,33.78
2022-08-05T12:24:17.232Z,34.01
2022-08-05T12:26:55.216Z,34.37
2022-08-05T12:29:29.136Z,34.84
2022-08-05T12:32:09.634Z,35.27
2022-08-05T12:34:38.605Z,35.59
2022-08-05T12:37:17.320Z,35.92
2022-08-05T12:40:03.552Z,36.03
2022-08-05T12:42:39.875Z,35.61
2022-08-05T12:45:10.358Z,35.51
2022-08-05T12:47:43.582Z,35.79
2022-08-05T12:50:26.843Z,35.87
2022-08-05T12:52:59.787Z,36.03
2022-08-05T12:55:32.667Z,36.41
2022-08-05T12:58:50.804Z,36.54
2022-08-05T13:02:01.963Z,36.59
2022-08-05T13:03:43.001Z,35.68
2022-08-05T13:06:17.142Z,34.82
2022-08-05T13:08:51.505Z,34.12
2022-08-05T13:12:03.152Z,33.44
2022-08-05T13:14:36.120Z,32.98
2022-08-05T13:17:10.515Z,32.40
2022-08-05T13:19:40.305Z,31.89
2022-08-05T13:22:28.262Z,31.47
2022-08-05T13:25:19.017Z,31.85
2022-08-05T13:27:50.549Z,32.17
2022-08-05T13:30:34.544Z,32.29
2022-08-05T13:33:05.228Z,32.77
2022-08-05T13:35:47.531Z,32.94
2022-08-05T13:38:30.912Z,33.35
2022-08-05T13:41:04.427Z,33.74
2022-08-05T13:43:43.476Z,33.90
2022-08-05T13:46:16.343Z,33.47
2022-08-05T13:49:00.980Z,32.77
2022-08-05T13:51:40.261Z,32.26
2022-08-05T13:54:12.343Z,31.90
2022-08-05T13:56:50.445Z,31.58
2022-08-05T13:59:25.005Z,31.21
2022-08-05T14:01:56.620Z,30.87
2022-08-05T14:04:50.855Z,30.70
2022-08-05T14:08:00.772Z,30.95
2022-08-05T14:10:28.093Z,31.67
2022-08-05T14:12:57.443Z,32.10
2022-08-05T14:16:07.007Z,32.43
2022-08-05T14:18:18.355Z,32.67
2022-08-05T14:20:54.997Z,32.88
2022-08-05T14:23:25.873Z,33.01
2022-08-05T14:25:58.785Z,33.02
2022-08-05T14:28:30.047Z,33.04
2022-08-05T14:31:00.904Z,33.01
2022-08-05T14:33:57.034Z,32.97
2022-08-05T14:36:21.422Z,33.00
2022-08-05T14:38:51.120Z,33.10
2022-08-05T14:41:19.623Z,33.23
2022-08-05T14:44:02.339Z,33.14
2022-08-05T14:46:36.664Z,32.78
2022-08-05T14:49:08.146Z,32.51
2022-08-05T14:51:42.846Z,32.49
2022-08-05T14:54:28.312Z,32.53
2022-08-05T14:56:59.570Z,32.58
2022-08-05T14:59:29.735Z,32.57
2022-08-05T15:02:15.958Z,32.53
2022-08-05T15:04:45.071Z,32.14
2022-08-05T15:08:08.641Z,31.73
2022-08-05T15:10:05.677Z,31.31
2022-08-05T15:12:59.656Z,30.92
2022-08-05T15:15:54.323Z,30.60
2022-08-05T15:18:17.299Z,30.43
2022-08-05T15:20:46.259Z,30.33
2022-08-05T15:23:15.836Z,30.21
2022-08-05T15:25:53.029Z,30.14
2022-08-05T15:28:27.469Z,30.06
2022-08-05T15:30:57.028Z,29.95
2022-08-05T15:34:19.438Z,29.94
2022-08-05T15:36:17.469Z,29.88
2022-08-05T15:40:42.699Z,29.74
2022-08-05T15:41:57.759Z,29.66
2022-08-05T15:44:30.243Z,29.51
2022-08-05T15:47:01.704Z,29.45
2022-08-05T15:49:48.126Z,29.40
2022-08-05T15:52:53.773Z,29.34
2022-08-05T15:55:15.479Z,29.20
2022-08-05T15:57:45.258Z,29.06
2022-08-05T16:00:16.638Z,28.97
2022-08-05T16:02:45.337Z,28.98
2022-08-05T16:05:15.252Z,29.14
2022-08-05T16:07:46.581Z,29.24
2022-08-05T16:10:23.142Z,29.35
2022-08-05T16:12:53.609Z,29.43
2022-08-05T16:15:24.537Z,29.47
2022-08-05T16:18:00.739Z,29.54
2022-08-05T16:20:32.780Z,29.59
2022-08-05T16:23:01.088Z,29.58
2022-08-05T16:25:34.057Z,29.51
2022-08-05T16:28:09.777Z,29.41
2022-08-05T16:30:38.854Z,29.25
2022-08-05T16:33:07.157Z,29.10
2022-08-05T16:35:43.146Z,28.98
2022-08-05T16:38:23.970Z,28.81
2022-08-05T16:41:00.171Z,28.66
2022-08-05T16:43:35.294Z,28.54
2022-08-05T16:46:23.783Z,28.41
2022-08-05T16:48:53.017Z,28.30
2022-08-05T16:51:24.673Z,28.22
2022-08-05T16:54:04.334Z,28.18
2022-08-05T16:56:36.233Z,28.14
2022-08-05T16:59:09.182Z,28.11
2022-08-05T17:01:53.837Z,28.06
2022-08-05T17:04:28.309Z,27.98
2022-08-05T17:07:01.809Z,27.91
2022-08-05T17:09:38.921Z,27.82
2022-08-05T17:12:22.302Z,27.74
2022-08-05T17:14:51.130Z,27.66
2022-08-05T17:17:19.826Z,27.57
2022-08-05T17:19:53.845Z,27.47
2022-08-05T17:22:25.246Z,27.37
2022-08-05T17:24:57.563Z,27.27
2022-08-05T17:27:34.388Z,27.17
2022-08-05T17:30:07.032Z,27.04
2022-08-05T17:32:42.226Z,26.93
2022-08-05T17:35:12.295Z,26.83
2022-08-05T17:37:45.328Z,26.71
2022-08-05T17:40:17.900Z,26.59
2022-08-05T17:42:50.614Z,26.48
2022-08-05T17:45:21.797Z,26.36
2022-08-05T17:47:55.009Z,26.24
2022-08-05T17:50:28.341Z,26.13
2022-08-05T17:53:00.186Z,26.03
2022-08-05T17:55:37.146Z,25.96
2022-08-05T17:58:10.850Z,25.89
2022-08-05T18:00:47.866Z,25.82
2022-08-05T18:03:48.337Z,25.77
2022-08-05T18:06:11.366Z,25.70
2022-08-05T18:08:44.577Z,25.65
2022-08-05T18:11:23.934Z,25.59
2022-08-05T18:14:06.658Z,25.57
2022-08-05T18:16:47.023Z,25.54
2022-08-05T18:19:22.903Z,25.52
2022-08-05T18:22:09.297Z,25.50
2022-08-05T18:24:40.220Z,25.48
2022-08-05T18:27:12.457Z,25.46
2022-08-05T18:29:41.508Z,25.45
2022-08-05T18:32:12.939Z,25.42
2022-08-05T18:34:43.013Z,25.40
2022-08-05T18:37:12.248Z,25.38
2022-08-05T18:40:29.821Z,25.37
2022-08-05T18:42:29.364Z,25.36
2022-08-05T18:44:57.700Z,25.36
2022-08-05T18:47:28.373Z,25.36
2022-08-05T18:50:18.017Z,25.34
2022-08-05T18:52:51.365Z,25.30
2022-08-05T18:55:22.290Z,25.27
2022-08-05T18:57:53.061Z,25.23
2022-08-05T19:00:29.125Z,25.19
2022-08-05T19:03:03.311Z,25.13
2022-08-05T19:06:11.284Z,25.08
2022-08-05T19:08:30.171Z,25.03
2022-08-05T19:11:04.535Z,25.01
2022-08-05T19:13:36.010Z,24.99
2022-08-05T19:16:25.324Z,24.97
2022-08-05T19:18:56.781Z,24.95
2022-08-05T19:21:27.718Z,24.93
2022-08-05T19:24:12.220Z,24.88
2022-08-05T19:26:45.490Z,24.87
2022-08-05T19:29:35.748Z,24.86
2022-08-05T19:32:11.436Z,24.87
2022-08-05T19:34:41.931Z,24.89
2022-08-05T19:37:29.812Z,24.92
2022-08-05T19:40:12.736Z,24.94
2022-08-05T19:43:04.858Z,24.95
2022-08-05T19:45:33.329Z,24.94
2022-08-05T19:48:06.430Z,24.91
2022-08-05T19:50:35.355Z,24.88
2022-08-05T19:53:10.446Z,24.88
2022-08-05T19:56:15.438Z,24.86
2022-08-05T19:58:28.540Z,24.83
2022-08-05T20:00:58.494Z,24.84
2022-08-05T20:03:27.652Z,24.85
2022-08-05T20:06:15.436Z,24.83
2022-08-05T20:08:47.545Z,24.82
2022-08-05T20:11:17.919Z,24.80
2022-08-05T21:29:41.336Z,23.64
2022-08-05T21:32:09.500Z,23.52
2022-08-05T21:34:45.343Z,23.45
2022-08-05T21:37:33.491Z,23.37
2022-08-05T21:40:05.916Z,23.31
2022-08-05T21:42:44.606Z,23.26
2022-08-05T21:45:24.175Z,23.23
2022-08-05T21:47:57.186Z,23.23
2022-08-05T21:50:26.920Z,23.21
2022-08-05T21:52:59.080Z,23.19
2022-08-05T21:56:01.758Z,23.16
2022-08-05T21:58:24.813Z,23.13
2022-08-05T22:00:59.605Z,23.12
2022-08-05T22:03:48.618Z,23.12
2022-08-05T22:06:22.383Z,23.12
2022-08-05T22:08:52.600Z,23.12
2022-08-05T22:11:35.539Z,23.10
2022-08-05T22:14:31.359Z,23.04
2022-08-05T22:16:56.940Z,22.98
2022-08-05T22:20:01.036Z,22.93
2022-08-05T22:22:16.177Z,22.89
2022-08-05T22:25:03.684Z,22.86
2022-08-05T22:28:09.267Z,22.84
2022-08-05T22:30:34.875Z,22.83
2022-08-05T22:33:15.818Z,22.77
2022-08-05T22:35:48.606Z,22.73
2022-08-05T22:38:19.026Z,22.72
2022-08-05T22:40:49.597Z,22.71
2022-08-05T22:43:36.604Z,22.69
2022-08-05T22:46:13.043Z,22.65
2022-08-05T22:48:43.830Z,22.62
2022-08-05T22:51:20.306Z,22.62
2022-08-05T22:53:51.970Z,22.63
2022-08-05T22:56:30.303Z,22.65
2022-08-05T22:59:04.610Z,22.67
2022-08-05T23:02:03.930Z,22.70
2022-08-05T23:04:33.947Z,22.71
2022-08-05T23:07:02.817Z,22.70
2022-08-05T23:09:57.702Z,22.69
2022-08-05T23:12:23.889Z,22.68
2022-08-05T23:14:52.501Z,22.68
2022-08-05T23:17:24.209Z,22.69
2022-08-05T23:19:58.149Z,22.71
2022-08-05T23:22:28.015Z,22.75
2022-08-05T23:24:56.188Z,22.79
2022-08-05T23:27:31.253Z,22.77
2022-08-05T23:30:11.026Z,22.73
2022-08-05T23:32:40.732Z,22.71
2022-08-05T23:35:13.577Z,22.68
2022-08-05T23:37:42.071Z,22.65
2022-08-05T23:40:12.122Z,22.64
2022-08-05T23:42:40.388Z,22.60
2022-08-05T23:45:15.991Z,22.56
2022-08-05T23:47:47.851Z,22.52
2022-08-05T23:50:20.019Z,22.51
2022-08-05T23:52:49.981Z,22.51
2022-08-05T23:55:19.297Z,22.51
2022-08-05T23:57:48.922Z,22.51
